createdAt,value
2022-10-07T00:00:51.294Z,4.60
2022-10-07T00:03:19.935Z,4.70
2022-10-07T00:05:47.961Z,3.60
2022-10-07T00:08:20.326Z,3.80
2022-10-07T00:10:48.406Z,3.57
2022-10-07T00:13:16.369Z,4.40
2022-10-07T00:15:44.180Z,3.50
2022-10-07T00:18:12.417Z,4.53
2022-10-07T00:20:40.371Z,3.30
2022-10-07T00:23:09.523Z,3.37
2022-10-07T00:25:38.733Z,3.83
2022-10-07T00:28:06.804Z,3.43
2022-10-07T00:30:34.733Z,3.93
2022-10-07T00:33:02.697Z,3.53
2022-10-07T00:35:30.553Z,3.43
2022-10-07T00:37:58.489Z,3.93
2022-10-07T00:40:26.096Z,3.97
2022-10-07T00:42:55.249Z,3.50
2022-10-07T00:45:22.829Z,3.40
2022-10-07T00:47:51.612Z,3.30
2022-10-07T00:50:21.681Z,3.67
2022-10-07T00:52:51.190Z,3.87
2022-10-07T00:55:19.993Z,3.97
2022-10-07T00:57:47.965Z,4.27
2022-10-07T01:00:17.127Z,3.30
2022-10-07T01:02:45.177Z,3.47
2022-10-07T01:05:14.154Z,4.00
2022-10-07T01:07:42.211Z,3.63
2022-10-07T01:10:11.635Z,3.17
2022-10-07T01:12:47.489Z,3.60
2022-10-07T01:15:19.280Z,3.33
2022-10-07T01:17:50.292Z,3.47
2022-10-07T01:20:23.381Z,3.83
2022-10-07T01:23:00.427Z,3.00
2022-10-07T01:25:35.529Z,3.97
2022-10-07T01:28:08.090Z,3.37
2022-10-07T01:30:38.776Z,3.80
2022-10-07T01:33:06.681Z,3.23
2022-10-07T01:35:35.503Z,3.63
2022-10-07T01:38:05.505Z,3.70
2022-10-07T01:40:34.697Z,3.97
2022-10-07T01:43:03.653Z,3.67
2022-10-07T01:45:32.567Z,3.77
2022-10-07T01:48:00.206Z,3.37
2022-10-07T01:50:30.019Z,3.80
2022-10-07T01:53:12.954Z,3.33
2022-10-07T01:55:49.457Z,3.20
2022-10-07T01:58:31.309Z,3.53
2022-10-07T02:01:02.138Z,3.20
2022-10-07T02:03:47.716Z,3.40
2022-10-07T02:06:19.500Z,4.37
2022-10-07T02:08:49.007Z,3.63
2022-10-07T02:11:18.648Z,4.23
2022-10-07T02:13:55.707Z,3.50
2022-10-07T02:16:24.976Z,3.23
2022-10-07T02:18:53.025Z,3.50
2022-10-07T02:21:21.882Z,3.43
2022-10-07T02:23:49.663Z,3.23
2022-10-07T02:26:19.381Z,3.40
2022-10-07T02:28:47.125Z,3.80
2022-10-07T02:31:18.130Z,4.10
2022-10-07T02:33:47.053Z,3.53
2022-10-07T02:36:16.727Z,3.43
2022-10-07T02:38:44.579Z,3.77
2022-10-07T02:41:14.141Z,2.87
2022-10-07T02:43:44.861Z,3.57
2022-10-07T02:46:14.179Z,2.87
2022-10-07T02:48:45.101Z,3.23
2022-10-07T02:51:21.073Z,3.30
2022-10-07T02:53:50.860Z,3.30
2022-10-07T02:56:18.702Z,3.70
2022-10-07T02:58:46.453Z,3.07
2022-10-07T03:01:16.990Z,3.77
2022-10-07T03:03:46.068Z,3.33
2022-10-07T03:06:13.941Z,3.63
2022-10-07T03:08:41.735Z,3.60
2022-10-07T03:11:09.786Z,3.40
2022-10-07T03:13:37.472Z,3.60
2022-10-07T03:16:05.743Z,3.60
2022-10-07T03:18:33.463Z,4.67
2022-10-07T03:21:04.108Z,3.50
2022-10-07T03:23:31.710Z,3.00
2022-10-07T03:25:59.729Z,3.67
2022-10-07T03:28:31.208Z,3.33
2022-10-07T03:31:04.959Z,3.83
2022-10-07T03:33:32.693Z,3.57
2022-10-07T03:36:00.401Z,3.33
2022-10-07T03:38:29.431Z,3.47
2022-10-07T03:40:57.158Z,3.07
2022-10-07T03:43:26.267Z,3.00
2022-10-07T03:45:53.971Z,3.07
2022-10-07T03:48:21.607Z,3.63
2022-10-07T03:50:50.439Z,2.87
2022-10-07T03:53:18.138Z,4.10
2022-10-07T03:55:47.152Z,3.30
2022-10-07T03:58:14.852Z,3.20
2022-10-07T04:00:42.609Z,3.40
2022-10-07T04:03:10.319Z,3.40
2022-10-07T04:05:38.210Z,3.30
2022-10-07T04:08:06.666Z,3.43
2022-10-07T04:10:35.654Z,3.43
2022-10-07T04:13:04.685Z,3.70
2022-10-07T04:15:32.442Z,3.20
2022-10-07T04:18:00.056Z,2.80
2022-10-07T04:20:27.827Z,3.40
2022-10-07T04:22:55.463Z,3.53
2022-10-07T04:27:52.399Z,3.47
2022-10-07T04:30:21.531Z,3.23
2022-10-07T04:32:50.703Z,3.50
2022-10-07T04:35:18.356Z,3.50
2022-10-07T04:37:46.454Z,4.43
2022-10-07T04:40:14.431Z,4.20
2022-10-07T04:42:59.297Z,3.73
2022-10-07T04:45:28.254Z,4.00
2022-10-07T04:47:55.999Z,3.23
2022-10-07T04:50:23.566Z,3.67
2022-10-07T04:52:51.320Z,3.80
2022-10-07T04:55:18.902Z,4.33
2022-10-07T04:57:47.040Z,3.87
2022-10-07T05:00:15.216Z,4.77
2022-10-07T05:02:46.343Z,4.40
2022-10-07T05:05:14.072Z,4.40
2022-10-07T05:07:41.851Z,5.43
2022-10-07T05:10:11.058Z,5.80
2022-10-07T05:12:41.478Z,4.03
2022-10-07T05:15:10.246Z,4.50
2022-10-07T05:17:38.188Z,7.47
2022-10-07T05:20:08.363Z,4.33
2022-10-07T05:22:36.232Z,12.77
2022-10-07T05:25:03.944Z,3.83
2022-10-07T05:27:32.433Z,4.27
2022-10-07T05:30:00.197Z,3.67
2022-10-07T05:32:28.282Z,3.63
2022-10-07T05:34:56.373Z,3.93
2022-10-07T05:37:25.494Z,3.47
2022-10-07T05:39:53.273Z,3.60
2022-10-07T05:42:20.858Z,4.37
2022-10-07T05:44:48.665Z,3.47
2022-10-07T05:47:18.214Z,3.67
2022-10-07T05:49:46.037Z,3.90
2022-10-07T05:52:13.699Z,3.70
2022-10-07T05:54:43.949Z,4.10
2022-10-07T05:57:11.599Z,7.10
2022-10-07T05:59:39.313Z,7.07
2022-10-07T06:02:07.040Z,4.40
2022-10-07T06:04:37.100Z,4.23
2022-10-07T06:07:05.386Z,4.10
2022-10-07T06:09:55.625Z,6.40
2022-10-07T06:12:44.517Z,3.33
2022-10-07T06:15:12.168Z,4.17
2022-10-07T06:17:44.724Z,4.27
2022-10-07T06:20:13.188Z,3.20
2022-10-07T06:22:42.965Z,3.90
2022-10-07T06:25:10.931Z,3.60
2022-10-07T06:27:40.016Z,3.97
2022-10-07T06:30:09.403Z,3.80
2022-10-07T06:32:37.129Z,3.83
2022-10-07T06:35:06.880Z,3.40
2022-10-07T06:37:34.479Z,3.67
2022-10-07T06:40:12.217Z,4.30
2022-10-07T06:42:41.398Z,4.17
2022-10-07T06:45:24.115Z,4.20
2022-10-07T06:47:52.817Z,4.23
2022-10-07T06:50:24.937Z,3.83
2022-10-07T06:52:52.804Z,3.67
2022-10-07T06:55:20.451Z,3.97
2022-10-07T06:57:49.530Z,3.83
2022-10-07T07:00:17.462Z,3.93
2022-10-07T07:02:45.397Z,3.77
2022-10-07T07:05:14.930Z,4.90
2022-10-07T07:07:43.250Z,3.80
2022-10-07T07:10:11.141Z,4.50
2022-10-07T07:12:38.879Z,3.80
2022-10-07T07:15:09.065Z,4.20
2022-10-07T07:17:36.939Z,4.27
2022-10-07T07:20:05.030Z,4.03
2022-10-07T07:22:38.213Z,3.73
2022-10-07T07:25:06.639Z,4.00
2022-10-07T07:27:34.255Z,4.20
2022-10-07T07:30:02.623Z,4.00
2022-10-07T07:32:31.581Z,4.27
2022-10-07T07:35:02.027Z,4.30
2022-10-07T07:37:30.199Z,4.50
2022-10-07T07:39:58.018Z,5.17
2022-10-07T07:42:25.782Z,4.83
2022-10-07T07:44:53.573Z,4.80
2022-10-07T07:47:21.213Z,4.63
2022-10-07T07:49:51.132Z,4.20
2022-10-07T07:52:18.722Z,3.80
2022-10-07T07:54:47.886Z,3.72
2022-10-07T07:57:15.485Z,3.60
2022-10-07T07:59:43.329Z,3.08
2022-10-07T08:02:12.131Z,3.03
2022-10-07T08:04:40.073Z,2.88
2022-10-07T08:07:11.394Z,2.70
2022-10-07T08:09:40.247Z,2.70
2022-10-07T08:12:08.029Z,3.60
2022-10-07T08:14:36.130Z,2.30
2022-10-07T08:23:19.635Z,2.47
2022-10-07T08:25:48.174Z,2.03
2022-10-07T08:28:17.460Z,2.25
2022-10-07T08:38:48.207Z,2.88
2022-10-07T09:15:35.421Z,2.60
2022-10-07T09:18:06.937Z,2.45
2022-10-07T09:20:36.673Z,2.42
2022-10-07T09:23:05.653Z,2.50
2022-10-07T09:25:35.575Z,2.55
2022-10-07T09:28:04.099Z,2.67
2022-10-07T09:47:14.254Z,2.70
2022-10-07T09:50:24.847Z,3.25
2022-10-07T10:25:20.379Z,3.17
2022-10-07T10:27:52.060Z,2.92
2022-10-07T10:30:22.019Z,3.88
2022-10-07T10:33:11.592Z,2.97
2022-10-07T10:35:42.218Z,2.42
2022-10-07T10:38:28.972Z,2.50
2022-10-07T10:41:02.825Z,2.58
2022-10-07T10:43:34.556Z,3.22
2022-10-07T10:46:12.770Z,3.30
2022-10-07T10:48:44.579Z,3.30
2022-10-07T10:51:21.461Z,3.50
2022-10-07T10:53:52.330Z,3.70
2022-10-07T10:56:27.898Z,3.35
2022-10-07T10:59:03.508Z,3.20
2022-10-07T11:01:33.979Z,3.28
2022-10-07T11:04:25.973Z,2.80
2022-10-07T11:06:55.670Z,3.28
2022-10-07T11:09:31.201Z,2.97
2022-10-07T11:12:02.836Z,3.30
2022-10-07T11:14:31.326Z,3.00
2022-10-07T11:17:02.549Z,3.00
2022-10-07T11:19:32.273Z,2.63
2022-10-07T11:22:01.079Z,2.88
2022-10-07T11:24:30.351Z,2.88
2022-10-07T11:27:03.117Z,2.55
2022-10-07T11:29:35.400Z,3.03
2022-10-07T11:32:04.976Z,3.45
2022-10-07T11:34:37.184Z,3.50
2022-10-07T11:37:07.213Z,2.85
2022-10-07T11:39:37.516Z,2.90
2022-10-07T11:42:13.162Z,2.55
2022-10-07T11:44:43.078Z,2.95
2022-10-07T11:47:12.635Z,2.63
2022-10-07T11:49:42.215Z,2.90
2022-10-07T11:52:12.497Z,2.95
2022-10-07T11:54:41.833Z,3.10
2022-10-07T11:57:19.969Z,3.15
2022-10-07T11:59:49.165Z,2.40
2022-10-07T12:02:39.238Z,3.20
2022-10-07T12:05:08.135Z,3.60
2022-10-07T12:07:40.955Z,2.80
2022-10-07T12:10:22.082Z,3.38
2022-10-07T12:12:55.912Z,3.10
2022-10-07T12:15:26.348Z,3.05
2022-10-07T12:17:58.259Z,2.95
2022-10-07T12:20:46.493Z,3.90
2022-10-07T12:23:51.230Z,2.97
2022-10-07T12:26:50.241Z,3.35
2022-10-07T12:29:33.654Z,2.78
2022-10-07T12:32:01.609Z,3.67
2022-10-07T12:34:41.133Z,2.97
2022-10-07T12:37:43.344Z,2.95
2022-10-07T12:40:15.981Z,2.70
2022-10-07T12:42:47.768Z,2.83
2022-10-07T12:45:17.401Z,2.85
2022-10-07T12:47:48.514Z,3.40
2022-10-07T12:50:16.704Z,2.85
2022-10-07T12:52:46.958Z,2.80
2022-10-07T12:55:16.277Z,2.60
2022-10-07T12:57:44.393Z,2.30
2022-10-07T13:00:13.343Z,2.83
2022-10-07T13:03:31.800Z,2.63
2022-10-07T13:06:36.750Z,2.45
2022-10-07T13:09:16.078Z,2.42
2022-10-07T13:12:18.905Z,2.38
2022-10-07T13:14:51.869Z,2.80
2022-10-07T13:17:36.833Z,2.08
2022-10-07T13:20:25.906Z,2.33
2022-10-07T13:22:53.828Z,2.22
2022-10-07T13:25:21.987Z,2.35
2022-10-07T13:27:53.566Z,2.40
2022-10-07T13:30:35.658Z,2.58
2022-10-07T13:33:18.962Z,2.33
2022-10-07T13:35:48.427Z,2.55
2022-10-07T13:38:26.727Z,3.20
2022-10-07T13:40:56.401Z,2.70
2022-10-07T13:43:28.053Z,2.85
2022-10-07T13:45:56.524Z,3.03
2022-10-07T13:48:25.817Z,2.10
2022-10-07T13:50:58.480Z,2.50
2022-10-07T13:53:28.689Z,2.63
2022-10-07T13:56:08.277Z,2.17
2022-10-07T13:58:35.988Z,2.15
2022-10-07T14:01:05.614Z,2.50
2022-10-07T14:03:35.580Z,2.10
2022-10-07T14:06:05.325Z,3.65
2022-10-07T14:08:34.361Z,2.30
2022-10-07T14:13:55.140Z,2.47
2022-10-07T14:16:25.298Z,2.05
2022-10-07T14:18:53.476Z,2.38
2022-10-07T14:21:23.273Z,1.92
2022-10-07T14:23:51.588Z,2.17
2022-10-07T14:26:19.497Z,2.13
2022-10-07T14:28:47.406Z,2.30
2022-10-07T14:31:39.292Z,2.03
2022-10-07T14:34:30.762Z,2.53
2022-10-07T14:37:03.857Z,2.23
2022-10-07T14:39:33.566Z,2.20
2022-10-07T14:42:01.595Z,2.20
2022-10-07T14:44:31.427Z,2.40
2022-10-07T14:47:06.645Z,2.53
2022-10-07T14:49:34.507Z,2.27
2022-10-07T14:52:06.319Z,3.40
2022-10-07T14:54:37.366Z,2.40
2022-10-07T14:57:05.158Z,2.60
2022-10-07T14:59:32.957Z,2.20
2022-10-07T15:02:00.983Z,2.47
2022-10-07T15:04:28.759Z,2.23
2022-10-07T15:06:56.433Z,2.80
2022-10-07T15:09:26.594Z,1.70
2022-10-07T15:12:01.489Z,2.60
2022-10-07T15:14:29.481Z,1.90
2022-10-07T15:16:57.404Z,2.07
2022-10-07T15:19:26.280Z,2.10
2022-10-07T15:21:56.224Z,2.10
2022-10-07T15:24:24.133Z,2.40
2022-10-07T15:26:53.253Z,2.80
2022-10-07T15:29:22.744Z,2.40
2022-10-07T15:31:50.507Z,2.50
2022-10-07T15:34:18.272Z,2.37
2022-10-07T15:36:49.059Z,1.87
2022-10-07T15:39:16.725Z,2.63
2022-10-07T15:41:45.059Z,1.83
2022-10-07T15:44:17.185Z,3.30
2022-10-07T15:46:45.842Z,2.10
2022-10-07T15:49:13.618Z,2.50
2022-10-07T15:51:41.711Z,2.10
2022-10-07T15:54:26.446Z,1.80
2022-10-07T15:56:54.177Z,2.40
2022-10-07T15:59:23.414Z,2.23
2022-10-07T16:01:52.454Z,2.53
2022-10-07T16:04:20.335Z,2.30
2022-10-07T16:06:51.350Z,2.10
2022-10-07T16:09:19.277Z,3.33
2022-10-07T16:11:47.581Z,3.67
2022-10-07T16:14:16.817Z,2.30
2022-10-07T16:16:46.165Z,3.37
2022-10-07T16:19:14.199Z,3.27
2022-10-07T16:21:52.873Z,5.33
2022-10-07T16:24:21.605Z,2.97
2022-10-07T16:26:50.551Z,3.27
2022-10-07T16:29:40.138Z,4.13
2022-10-07T16:32:10.556Z,4.50
2022-10-07T16:34:38.838Z,2.50
2022-10-07T16:37:07.316Z,2.00
2022-10-07T16:49:47.061Z,2.47
2022-10-07T16:52:42.468Z,2.40
2022-10-07T16:59:01.994Z,2.80
2022-10-07T17:01:32.009Z,2.40
2022-10-07T17:04:00.227Z,2.20
2022-10-07T17:06:29.383Z,2.47
2022-10-07T17:08:59.549Z,2.13
2022-10-07T17:11:29.988Z,2.30
2022-10-07T17:13:58.394Z,3.10
2022-10-07T17:16:26.652Z,3.10
2022-10-07T17:18:54.368Z,2.80
2022-10-07T17:21:22.293Z,2.63
2022-10-07T17:23:49.961Z,2.73
2022-10-07T17:26:20.778Z,3.67
2022-10-07T17:28:49.681Z,2.67
2022-10-07T17:31:18.063Z,2.60
2022-10-07T17:33:46.090Z,2.70
2022-10-07T17:36:15.038Z,2.60
2022-10-07T17:38:43.509Z,3.07
2022-10-07T17:41:12.406Z,3.17
2022-10-07T17:43:41.440Z,3.17
2022-10-07T17:46:12.699Z,4.43
2022-10-07T17:48:43.113Z,4.60
2022-10-07T17:51:11.195Z,7.07
2022-10-07T17:53:40.313Z,4.03
2022-10-07T17:56:10.022Z,3.67
2022-10-07T17:58:38.157Z,4.37
2022-10-07T18:01:08.147Z,4.73
2022-10-07T18:03:37.747Z,3.90
2022-10-07T18:06:07.039Z,4.87
2022-10-07T18:08:35.300Z,4.27
2022-10-07T18:11:03.770Z,6.37
2022-10-07T18:13:49.600Z,9.83
2022-10-07T18:16:18.704Z,9.60
2022-10-07T18:18:54.391Z,9.57
2022-10-07T18:21:22.405Z,12.70
2022-10-07T18:23:52.546Z,7.20
2022-10-07T18:26:20.280Z,6.60
2022-10-07T18:28:47.905Z,9.40
2022-10-07T18:31:16.504Z,7.57
2022-10-07T18:33:46.314Z,6.83
2022-10-07T18:36:16.070Z,5.57
2022-10-07T18:38:45.867Z,6.07
2022-10-07T18:41:14.421Z,7.83
2022-10-07T18:43:42.464Z,7.70
2022-10-07T18:46:11.955Z,7.30
2022-10-07T18:48:40.258Z,8.23
2022-10-07T18:51:09.625Z,6.60
2022-10-07T18:53:38.333Z,7.43
2022-10-07T18:56:07.064Z,6.87
2022-10-07T18:58:34.831Z,8.40
2022-10-07T19:01:06.711Z,6.70
2022-10-07T19:03:34.729Z,7.63
2022-10-07T19:06:05.875Z,7.17
2022-10-07T19:08:34.873Z,5.83
2022-10-07T19:11:06.290Z,6.13
2022-10-07T19:13:50.389Z,6.63
2022-10-07T19:16:18.833Z,5.77
2022-10-07T19:18:46.889Z,6.47
2022-10-07T19:21:15.347Z,7.43
2022-10-07T19:23:44.479Z,6.83
2022-10-07T19:26:12.862Z,6.90
2022-10-07T19:28:41.077Z,7.10
2022-10-07T19:31:13.326Z,8.43
2022-10-07T19:33:42.787Z,7.33
2022-10-07T19:36:10.973Z,6.83
2022-10-07T19:38:43.264Z,6.67
2022-10-07T19:41:13.372Z,6.43
2022-10-07T19:43:42.775Z,6.80
2022-10-07T19:46:11.037Z,6.87
2022-10-07T19:48:39.811Z,7.43
2022-10-07T19:51:09.399Z,7.00
2022-10-07T19:53:37.470Z,7.20
2022-10-07T19:56:07.366Z,7.03
2022-10-07T19:58:38.238Z,7.03
2022-10-07T20:01:06.853Z,7.70
2022-10-07T20:03:34.971Z,7.50
2022-10-07T20:06:05.569Z,7.83
2022-10-07T20:08:34.260Z,7.63
2022-10-07T20:11:02.482Z,6.83
2022-10-07T20:13:32.736Z,7.00
2022-10-07T20:16:06.449Z,8.10
2022-10-07T20:18:34.642Z,7.83
2022-10-07T20:21:03.501Z,8.87
2022-10-07T20:23:33.997Z,11.20
2022-10-07T20:26:06.591Z,11.33
2022-10-07T20:28:37.597Z,10.97
2022-10-07T20:31:08.474Z,10.10
2022-10-07T20:33:39.015Z,10.37
2022-10-07T20:36:08.407Z,10.17
2022-10-07T20:38:50.310Z,10.17
2022-10-07T20:41:35.549Z,10.40
2022-10-07T20:44:03.612Z,9.70
2022-10-07T20:46:33.415Z,10.13
2022-10-07T20:49:01.407Z,10.27
2022-10-07T20:51:30.584Z,9.17
2022-10-07T20:53:58.526Z,9.87
2022-10-07T20:56:27.773Z,9.10
2022-10-07T20:58:55.854Z,8.87
2022-10-07T21:01:24.738Z,9.40
2022-10-07T21:03:54.186Z,9.23
2022-10-07T21:06:23.398Z,8.97
2022-10-07T21:08:56.348Z,7.87
2022-10-07T21:11:25.527Z,7.57
2022-10-07T21:13:55.112Z,7.13
2022-10-07T21:16:24.376Z,9.37
2022-10-07T21:19:08.643Z,7.37
2022-10-07T21:21:45.828Z,7.37
2022-10-07T21:24:16.309Z,8.23
2022-10-07T21:26:52.410Z,8.87
2022-10-07T21:29:39.185Z,7.80
2022-10-07T21:32:41.367Z,7.80
2022-10-07T21:35:18.875Z,8.03
2022-10-07T21:37:52.705Z,8.13
2022-10-07T21:41:40.206Z,7.77
2022-10-07T21:44:11.107Z,8.27
2022-10-07T21:46:47.845Z,7.00
2022-10-07T21:49:36.622Z,11.07
2022-10-07T21:52:10.266Z,9.73
2022-10-07T21:54:41.519Z,8.90
2022-10-07T21:57:20.272Z,8.63
2022-10-07T21:59:55.390Z,8.67
2022-10-07T22:02:28.484Z,8.30
2022-10-07T22:05:16.529Z,7.60
2022-10-07T22:08:15.395Z,6.80
2022-10-07T22:10:51.661Z,6.33
2022-10-07T22:13:33.111Z,5.37
2022-10-07T22:16:22.449Z,4.33
2022-10-07T22:19:16.265Z,4.53
2022-10-07T22:22:20.622Z,4.80
2022-10-07T22:25:17.232Z,4.00
2022-10-07T22:28:15.820Z,3.87
2022-10-07T22:31:05.377Z,4.27
2022-10-07T22:34:00.371Z,3.90
2022-10-07T22:36:43.979Z,4.20
2022-10-07T22:39:36.195Z,3.70
2022-10-07T22:44:58.075Z,3.63
2022-10-07T22:59:19.431Z,3.80
2022-10-07T23:05:49.493Z,3.90
2022-10-07T23:12:00.543Z,3.53
2022-10-07T23:15:04.425Z,3.93
2022-10-07T23:21:35.495Z,3.13
2022-10-07T23:24:20.337Z,3.67
2022-10-07T23:26:52.722Z,3.63
2022-10-07T23:32:33.969Z,3.33
2022-10-07T23:35:01.569Z,3.17
2022-10-07T23:37:30.665Z,3.17
2022-10-07T23:39:58.260Z,3.00
2022-10-07T23:42:25.989Z,3.47
2022-10-07T23:44:53.586Z,3.30
2022-10-07T23:47:24.931Z,3.20
2022-10-07T23:49:52.489Z,3.70
2022-10-07T23:52:22.166Z,2.80
2022-10-07T23:54:52.346Z,3.10
